Potomac — WBF7534 — position and weather

sailwx.info

Track history (hours):
 
Tides and Currents Weather Stations Pressure Air Temp Water Temp Dewpoint Dewpoint Depression Visibility Wind Speed Wind Dir Waves Ship Positions

Potomac

Owner: POTOMAC ASSOCIATION, OAKLAND, CA. More information available from US FCC via Universal Licensing System and Coast Guard Vessel Documentation Center.

Last reported at 2016-May-29 22:31 UTC. Time now 2016-May-30 08:49 UTC.
Position N 37°48' W 122°23'.

Length 51 m; draft 3.1 m.

MMSI: 367166810.

Date/timePositionNaut miles runAvg speedWind from/ knotsBaromVisibWave heightAir tempDewpointWater temp
2016-May-29 22:31N 37°48' W 122°23'5 5.5
2016-May-29 21:32N 37°52' W 122°27'7 7.3
2016-May-29 20:33N 37°48' W 122°20'2 2.4
2016-May-29 19:33N 37°48' W 122°17'4 0.3
2016-May-29 03:33N 37°48' W 122°22'6 6.1
2016-May-29 02:32N 37°52' W 122°29'9 9.1
2016-May-29 01:33N 37°48' W 122°19'0 0.1
2016-May-28 20:31N 37°48' W 122°18'8 8.3
2016-May-28 19:32N 37°52' W 122°27'2 2.4
2016-May-28 18:33N 37°52' W 122°24'7 3.5
2016-May-28 16:32N 37°48' W 122°17'0 0.0
2016-May-26 20:33N 37°48' W 122°17'0 0.3
2016-May-26 19:33N 37°48' W 122°17'0 0.3
2016-May-26 18:33N 37°48' W 122°17'0 0.0
2016-May-26 16:33N 37°48' W 122°17'0 0.0
2016-May-26 15:33N 37°48' W 122°17'0 0.0
2016-May-25 23:33N 37°48' W 122°17'8 7.9
2016-May-25 22:34N 37°49' W 122°27'3 3.1
2016-May-25 21:33N 37°48' W 122°23'5 4.9
2016-May-25 20:33N 37°48' W 122°17'0 0.0
2016-May-25 19:33N 37°48' W 122°17'  
2016-May-23 00:27N 37°48' W 122°17'5 5.8
2016-May-22 23:33N 37°48' W 122°23'6 5.6
2016-May-22 22:33N 37°52' W 122°29'7 6.9
2016-May-22 21:33N 37°49' W 122°21'4 3.6
2016-May-22 20:33N 37°48' W 122°17'0 0.0
2016-May-22 04:20N 37°48' W 122°17'4 5.1
2016-May-22 03:33N 37°47' W 122°22'6 6.0
2016-May-22 02:33N 37°51' W 122°27'9 8.6
2016-May-22 01:33N 37°48' W 122°17'0 0.4
2016-May-22 00:33N 37°48' W 122°17'0 0.0
2016-May-21 23:33N 37°48' W 122°17'0 0.0
2016-May-21 22:33N 37°48' W 122°17'  
Track history (hours):
 
Tides and Currents Weather Stations Pressure Air Temp Water Temp Dewpoint Dewpoint Depression Visibility Wind Speed Wind Dir Waves Ship Positions

Potomac

Owner: POTOMAC ASSOCIATION, OAKLAND, CA. More information available from US FCC via Universal Licensing System and Coast Guard Vessel Documentation Center.

Last reported at 2016-May-29 22:31 UTC. Time now 2016-May-30 08:49 UTC.
Position N 37°48' W 122°23'.

Length 51 m; draft 3.1 m.

MMSI: 367166810.

Date/timePositionNaut miles runAvg speedWind from/ knotsBaromVisibWave heightAir tempDewpointWater temp
2016-May-29 22:31N 37°48' W 122°23'5 5.5
2016-May-29 21:32N 37°52' W 122°27'7 7.3
2016-May-29 20:33N 37°48' W 122°20'2 2.4
2016-May-29 19:33N 37°48' W 122°17'4 0.3
2016-May-29 03:33N 37°48' W 122°22'6 6.1
2016-May-29 02:32N 37°52' W 122°29'9 9.1
2016-May-29 01:33N 37°48' W 122°19'0 0.1
2016-May-28 20:31N 37°48' W 122°18'8 8.3
2016-May-28 19:32N 37°52' W 122°27'2 2.4
2016-May-28 18:33N 37°52' W 122°24'7 3.5
2016-May-28 16:32N 37°48' W 122°17'0 0.0
2016-May-26 20:33N 37°48' W 122°17'0 0.3
2016-May-26 19:33N 37°48' W 122°17'0 0.3
2016-May-26 18:33N 37°48' W 122°17'0 0.0
2016-May-26 16:33N 37°48' W 122°17'0 0.0
2016-May-26 15:33N 37°48' W 122°17'0 0.0
2016-May-25 23:33N 37°48' W 122°17'8 7.9
2016-May-25 22:34N 37°49' W 122°27'3 3.1
2016-May-25 21:33N 37°48' W 122°23'5 4.9
2016-May-25 20:33N 37°48' W 122°17'0 0.0
2016-May-25 19:33N 37°48' W 122°17'  
2016-May-23 00:27N 37°48' W 122°17'5 5.8
2016-May-22 23:33N 37°48' W 122°23'6 5.6
2016-May-22 22:33N 37°52' W 122°29'7 6.9
2016-May-22 21:33N 37°49' W 122°21'4 3.6
2016-May-22 20:33N 37°48' W 122°17'0 0.0
2016-May-22 04:20N 37°48' W 122°17'4 5.1
2016-May-22 03:33N 37°47' W 122°22'6 6.0
2016-May-22 02:33N 37°51' W 122°27'9 8.6
2016-May-22 01:33N 37°48' W 122°17'0 0.4
2016-May-22 00:33N 37°48' W 122°17'0 0.0
2016-May-21 23:33N 37°48' W 122°17'0 0.0
2016-May-21 22:33N 37°48' W 122°17'  

Dump ship's entire track history